Climatologie pour Saint-Brevin les Pins
Jour • Résumé pour juin 12, 2017 Système :  Métrique    Anglais   Mixte
« - 1 jour
+ 1 jour »
Jour Semaine Mois Année Personnalisé
  Maximum : Minimum : Moyenne :
Température sous abri : 20.6 °C 11.3 °C 16.4 °C
Point de rosée : 15.3 °C 10.7 °C 12.8 °C
Humidité : 97 % 62 % 81 %
Vitesse du vent : 20.9 km/h 0.0 km/h 5.6 km/h
Rafale : 27.4 km/h - -
Direction :- - West
Pression : 1022.9 hPa 1019.2 hPa -
Précipitations : 0.0 mm    
Historical Graphs
 
 
Tableau de données pour juin 12, 2017
Heure Tempé Pt rosée Pression Vent Vitesse Rafale Humidité Taux pluie (/hr) Soleil
00:00 14.8 °C 13.0 °C 1020.5 hPa West 8.0 km/h 20.9 km/h 89 % 0.0 mm 0 W/m2
00:05 14.8 °C 13.0 °C 1020.5 hPa WNW 4.8 km/h 20.9 km/h 89 % 0.0 mm 0 W/m2
00:15 14.7 °C 13.0 °C 1020.5 hPa NNW 6.4 km/h 16.1 km/h 90 % 0.0 mm 0 W/m2
00:20 14.6 °C 12.9 °C 1020.5 hPa NNW 3.2 km/h 14.5 km/h 90 % 0.0 mm 0 W/m2
00:25 14.6 °C 12.9 °C 1020.5 hPa WNW 3.2 km/h 14.5 km/h 90 % 0.0 mm 0 W/m2
00:30 14.5 °C 12.9 °C 1020.5 hPa NW 6.4 km/h 12.9 km/h 90 % 0.0 mm 0 W/m2
00:40 14.4 °C 13.0 °C 1020.9 hPa WNW 4.8 km/h 16.1 km/h 91 % 0.0 mm 0 W/m2
00:45 14.4 °C 12.9 °C 1020.9 hPa WNW 3.2 km/h 16.1 km/h 91 % 0.0 mm 0 W/m2
00:50 14.3 °C 12.9 °C 1020.9 hPa NW 3.2 km/h 12.9 km/h 91 % 0.0 mm 0 W/m2
00:55 14.3 °C 13.1 °C 1020.9 hPa NNW 4.8 km/h 14.5 km/h 92 % 0.0 mm 0 W/m2
01:00 14.3 °C 13.1 °C 1020.9 hPa NW 1.6 km/h 16.1 km/h 92 % 0.0 mm 0 W/m2
01:10 14.2 °C 12.9 °C 1020.9 hPa West 14.5 km/h 16.1 km/h 92 % 0.0 mm 0 W/m2
01:15 14.3 °C 13.2 °C 1020.9 hPa NW 11.3 km/h 16.1 km/h 93 % 0.0 mm 0 W/m2
01:25 14.5 °C 13.2 °C 1020.9 hPa West 11.3 km/h 20.9 km/h 92 % 0.0 mm 0 W/m2
01:30 14.5 °C 13.2 °C 1020.9 hPa WSW 6.4 km/h 19.3 km/h 92 % 0.0 mm 0 W/m2
01:35 14.6 °C 13.3 °C 1020.9 hPa WNW 9.7 km/h 19.3 km/h 92 % 0.0 mm 0 W/m2
01:45 14.3 °C 13.0 °C 1020.9 hPa NW 4.8 km/h 14.5 km/h 92 % 0.0 mm 0 W/m2
01:50 14.1 °C 12.8 °C 1020.9 hPa Calm   14.5 km/h 92 % 0.0 mm 0 W/m2
01:55 14.1 °C 13.0 °C 1020.9 hPa WNW 9.7 km/h 14.5 km/h 93 % 0.0 mm 0 W/m2
02:00 14.3 °C 13.2 °C 1021.2 hPa WNW 3.2 km/h 22.5 km/h 93 % 0.0 mm 0 W/m2
02:05 14.2 °C 13.1 °C 1021.2 hPa WNW 8.0 km/h 22.5 km/h 93 % 0.0 mm 0 W/m2
02:10 14.3 °C 13.2 °C 1021.2 hPa WNW 4.8 km/h 16.1 km/h 93 % 0.0 mm 0 W/m2
02:15 14.2 °C 13.1 °C 1021.2 hPa WNW 8.0 km/h 16.1 km/h 93 % 0.0 mm 0 W/m2
02:20 14.2 °C 13.1 °C 1021.2 hPa WNW 6.4 km/h 14.5 km/h 93 % 0.0 mm 0 W/m2
02:30 14.1 °C 12.9 °C 1021.2 hPa NW 3.2 km/h 20.9 km/h 93 % 0.0 mm 0 W/m2
02:35 14.1 °C 12.9 °C 1021.2 hPa NW 1.6 km/h 20.9 km/h 93 % 0.0 mm 0 W/m2
02:40 14.0 °C 12.9 °C 1021.2 hPa NW 6.4 km/h 16.1 km/h 93 % 0.0 mm 0 W/m2
02:45 13.9 °C 12.8 °C 1021.2 hPa NW 1.6 km/h 12.9 km/h 93 % 0.0 mm 0 W/m2
02:50 13.9 °C 12.8 °C 1021.2 hPa NW 3.2 km/h 12.9 km/h 93 % 0.0 mm 0 W/m2
02:55 14.0 °C 12.9 °C 1021.2 hPa WNW 3.2 km/h 12.9 km/h 93 % 0.0 mm 0 W/m2
03:00 14.0 °C 12.9 °C 1021.2 hPa WNW 4.8 km/h 14.5 km/h 93 % 0.0 mm 0 W/m2
03:05 13.9 °C 12.8 °C 1021.2 hPa WNW 4.8 km/h 14.5 km/h 93 % 0.0 mm 0 W/m2
03:15 13.9 °C 12.8 °C 1021.2 hPa NW 6.4 km/h 11.3 km/h 93 % 0.0 mm 0 W/m2
03:20 13.8 °C 12.7 °C 1021.2 hPa West 3.2 km/h 12.9 km/h 93 % 0.0 mm 0 W/m2
03:25 13.7 °C 12.6 °C 1021.2 hPa NW 3.2 km/h 12.9 km/h 93 % 0.0 mm 0 W/m2
03:30 13.6 °C 12.5 °C 1021.2 hPa WNW 3.2 km/h 11.3 km/h 93 % 0.0 mm 0 W/m2
03:35 13.6 °C 12.4 °C 1021.2 hPa NW 6.4 km/h 12.9 km/h 93 % 0.0 mm 0 W/m2
03:40 13.4 °C 12.3 °C 1021.2 hPa NNW 9.7 km/h 12.9 km/h 93 % 0.0 mm 0 W/m2
03:45 13.2 °C 12.1 °C 1021.2 hPa NW 1.6 km/h 11.3 km/h 93 % 0.0 mm 0 W/m2
03:50 13.2 °C 12.2 °C 1021.2 hPa NW 6.4 km/h 11.3 km/h 94 % 0.0 mm 0 W/m2
04:00 13.2 °C 12.2 °C 1021.2 hPa NW 1.6 km/h 11.3 km/h 94 % 0.0 mm 0 W/m2
04:05 13.1 °C 12.1 °C 1021.2 hPa NW 8.0 km/h 11.3 km/h 94 % 0.0 mm 0 W/m2
04:10 13.0 °C 12.1 °C 1021.2 hPa NW 3.2 km/h 11.3 km/h 94 % 0.0 mm 0 W/m2
04:15 12.9 °C 12.0 °C 1021.2 hPa NW 1.6 km/h 11.3 km/h 94 % 0.0 mm 0 W/m2
04:20 12.8 °C 11.8 °C 1021.2 hPa NNW 4.8 km/h 8.0 km/h 94 % 0.0 mm 0 W/m2
04:25 12.7 °C 11.9 °C 1021.2 hPa Calm   6.4 km/h 95 % 0.0 mm 0 W/m2
04:30 12.6 °C 11.8 °C 1021.2 hPa WNW 3.2 km/h 9.7 km/h 95 % 0.0 mm 0 W/m2
04:35 12.4 °C 11.6 °C 1021.2 hPa Calm   9.7 km/h 95 % 0.0 mm 0 W/m2
04:45 12.2 °C 11.4 °C 1021.2 hPa Calm   8.0 km/h 95 % 0.0 mm 0 W/m2
04:50 12.2 °C 11.5 °C 1021.2 hPa WNW 1.6 km/h 8.0 km/h 96 % 0.0 mm 0 W/m2
04:55 12.2 °C 11.5 °C 1021.2 hPa Calm   8.0 km/h 96 % 0.0 mm 0 W/m2
05:00 12.2 °C 11.5 °C 1021.2 hPa Calm   8.0 km/h 96 % 0.0 mm 0 W/m2
05:05 12.1 °C 11.4 °C 1021.2 hPa Calm   6.4 km/h 96 % 0.0 mm 0 W/m2
05:10 12.1 °C 11.4 °C 1021.2 hPa NNW 1.6 km/h 6.4 km/h 96 % 0.0 mm 0 W/m2
05:20 11.8 °C 11.2 °C 1021.2 hPa Calm   3.2 km/h 96 % 0.0 mm 0 W/m2
05:30 11.6 °C 11.0 °C 1021.2 hPa NNW 3.2 km/h 3.2 km/h 96 % 0.0 mm 0 W/m2
05:35 11.6 °C 10.9 °C 1021.2 hPa NNW 4.8 km/h 4.8 km/h 96 % 0.0 mm 0 W/m2
05:40 11.6 °C 11.0 °C 1021.2 hPa NW 6.4 km/h 14.5 km/h 96 % 0.0 mm 0 W/m2
05:45 11.8 °C 11.3 °C 1021.2 hPa North 4.8 km/h 14.5 km/h 97 % 0.0 mm 0 W/m2
05:50 11.8 °C 11.4 °C 1021.2 hPa NW 1.6 km/h 14.5 km/h 97 % 0.0 mm 0 W/m2
05:55 11.8 °C 11.4 °C 1021.2 hPa NNW 6.4 km/h 14.5 km/h 97 % 0.0 mm 0 W/m2
06:00 11.8 °C 11.4 °C 1021.2 hPa Calm   6.4 km/h 97 % 0.0 mm 0 W/m2
06:05 11.8 °C 11.4 °C 1021.2 hPa Calm   9.7 km/h 97 % 0.0 mm 0 W/m2
06:15 11.7 °C 11.3 °C 1021.2 hPa North 4.8 km/h 11.3 km/h 97 % 0.0 mm 5 W/m2
06:20 11.7 °C 11.1 °C 1021.2 hPa NNW 3.2 km/h 11.3 km/h 96 % 0.0 mm 7 W/m2
06:25 11.6 °C 11.2 °C 1021.2 hPa NNW 3.2 km/h 8.0 km/h 97 % 0.0 mm 9 W/m2
06:30 11.6 °C 11.1 °C 1021.2 hPa Calm   8.0 km/h 97 % 0.0 mm 11 W/m2
06:35 11.3 °C 10.7 °C 1021.2 hPa NNW 1.6 km/h 8.0 km/h 96 % 0.0 mm 14 W/m2
06:40 11.4 °C 10.9 °C 1021.2 hPa Calm   4.8 km/h 97 % 0.0 mm 16 W/m2
06:45 11.4 °C 10.9 °C 1021.2 hPa NNW 1.6 km/h 6.4 km/h 97 % 0.0 mm 18 W/m2
06:50 11.3 °C 10.9 °C 1021.6 hPa Calm   6.4 km/h 97 % 0.0 mm 19 W/m2
06:55 11.3 °C 10.9 °C 1021.6 hPa Calm   4.8 km/h 97 % 0.0 mm 21 W/m2
07:00 11.3 °C 10.9 °C 1021.6 hPa NNW 1.6 km/h 4.8 km/h 97 % 0.0 mm 25 W/m2
07:10 11.4 °C 10.9 °C 1021.9 hPa NNW 1.6 km/h 4.8 km/h 97 % 0.0 mm 30 W/m2
07:15 11.6 °C 11.1 °C 1021.9 hPa Calm   9.7 km/h 97 % 0.0 mm 32 W/m2
07:20 11.7 °C 11.3 °C 1021.9 hPa NW 3.2 km/h 9.7 km/h 97 % 0.0 mm 33 W/m2
07:25 11.8 °C 11.3 °C 1021.9 hPa Calm   9.7 km/h 97 % 0.0 mm 35 W/m2
07:30 11.9 °C 11.5 °C 1021.9 hPa NNW 1.6 km/h 9.7 km/h 97 % 0.0 mm 39 W/m2
07:35 12.1 °C 11.6 °C 1021.9 hPa North 1.6 km/h 11.3 km/h 97 % 0.0 mm 40 W/m2
07:45 12.3 °C 11.9 °C 1022.2 hPa Calm   8.0 km/h 97 % 0.0 mm 46 W/m2
07:50 12.4 °C 12.0 °C 1022.2 hPa North 3.2 km/h 9.7 km/h 97 % 0.0 mm 155 W/m2
07:55 12.4 °C 11.8 °C 1022.2 hPa NNE 6.4 km/h 9.7 km/h 96 % 0.0 mm 199 W/m2
08:00 12.7 °C 12.0 °C 1022.2 hPa NNW 3.2 km/h 12.9 km/h 96 % 0.0 mm 213 W/m2
08:05 12.8 °C 12.1 °C 1022.2 hPa NW 3.2 km/h 12.9 km/h 95 % 0.0 mm 229 W/m2
08:10 12.9 °C 12.2 °C 1022.2 hPa NNE 8.0 km/h 9.7 km/h 95 % 0.0 mm 243 W/m2
08:15 13.2 °C 12.3 °C 1022.2 hPa NNW 1.6 km/h 9.7 km/h 94 % 0.0 mm 258 W/m2
08:20 13.4 °C 12.3 °C 1022.2 hPa NNW 8.0 km/h 16.1 km/h 93 % 0.0 mm 272 W/m2
08:30 13.7 °C 12.1 °C 1022.6 hPa NW 6.4 km/h 12.9 km/h 90 % 0.0 mm 297 W/m2
08:35 13.8 °C 12.2 °C 1022.6 hPa NE 4.8 km/h 11.3 km/h 90 % 0.0 mm 316 W/m2
08:40 14.1 °C 12.3 °C 1022.6 hPa NNE 1.6 km/h 8.0 km/h 89 % 0.0 mm 334 W/m2
08:45 14.3 °C 12.5 °C 1022.6 hPa North 4.8 km/h 12.9 km/h 89 % 0.0 mm 350 W/m2
08:50 14.6 °C 12.6 °C 1022.6 hPa NNE 3.2 km/h 12.9 km/h 88 % 0.0 mm 387 W/m2
08:55 14.7 °C 12.6 °C 1022.6 hPa NW 4.8 km/h 12.9 km/h 87 % 0.0 mm 387 W/m2
09:00 14.9 °C 12.6 °C 1022.6 hPa NW 3.2 km/h 9.7 km/h 86 % 0.0 mm 399 W/m2
09:05 15.1 °C 12.4 °C 1022.6 hPa NNE 4.8 km/h 11.3 km/h 84 % 0.0 mm 411 W/m2
09:15 15.2 °C 12.2 °C 1022.6 hPa NNW 9.7 km/h 12.9 km/h 82 % 0.0 mm 441 W/m2
09:20 15.6 °C 12.9 °C 1022.6 hPa NW 1.6 km/h 12.9 km/h 84 % 0.0 mm 461 W/m2
09:25 15.7 °C 12.7 °C 1022.6 hPa NNE 6.4 km/h 9.7 km/h 82 % 0.0 mm 473 W/m2
09:30 16.0 °C 12.5 °C 1022.2 hPa NW 4.8 km/h 12.9 km/h 80 % 0.0 mm 490 W/m2
09:35 16.2 °C 12.9 °C 1022.6 hPa WNW 4.8 km/h 12.9 km/h 81 % 0.0 mm 503 W/m2
09:40 16.2 °C 12.6 °C 1022.6 hPa NNE 1.6 km/h 8.0 km/h 79 % 0.0 mm 513 W/m2
09:45 16.2 °C 12.6 °C 1022.6 hPa WNW 4.8 km/h 12.9 km/h 79 % 0.0 mm 524 W/m2
09:50 16.2 °C 12.3 °C 1022.6 hPa NW 4.8 km/h 12.9 km/h 78 % 0.0 mm 543 W/m2
10:00 16.3 °C 12.1 °C 1022.6 hPa NNW 3.2 km/h 9.7 km/h 76 % 0.0 mm 566 W/m2
10:05 16.7 °C 12.4 °C 1022.6 hPa North 11.3 km/h 12.9 km/h 76 % 0.0 mm 584 W/m2
10:10 16.8 °C 12.7 °C 1022.6 hPa WNW 6.4 km/h 12.9 km/h 77 % 0.0 mm 599 W/m2
10:15 17.1 °C 12.8 °C 1022.6 hPa WNW 3.2 km/h 12.9 km/h 76 % 0.0 mm 608 W/m2
10:20 16.7 °C 12.3 °C 1022.6 hPa North 3.2 km/h 9.7 km/h 75 % 0.0 mm 628 W/m2
10:25 16.8 °C 12.6 °C 1022.6 hPa North 3.2 km/h 11.3 km/h 76 % 0.0 mm 650 W/m2
10:30 17.2 °C 12.9 °C 1022.6 hPa West 4.8 km/h 11.3 km/h 76 % 0.0 mm 652 W/m2
10:35 17.3 °C 12.4 °C 1022.6 hPa West 6.4 km/h 11.3 km/h 73 % 0.0 mm 671 W/m2
10:45 17.7 °C 13.0 °C 1022.6 hPa North 6.4 km/h 11.3 km/h 74 % 0.0 mm 689 W/m2
10:50 17.8 °C 12.4 °C 1022.6 hPa NW 1.6 km/h 9.7 km/h 71 % 0.0 mm 698 W/m2
10:55 17.6 °C 12.2 °C 1022.6 hPa NNE 4.8 km/h 11.3 km/h 71 % 0.0 mm 719 W/m2
11:00 18.3 °C 12.8 °C 1022.6 hPa NE 8.0 km/h 11.3 km/h 70 % 0.0 mm 735 W/m2
11:05 18.3 °C 12.7 °C 1022.6 hPa NNE 1.6 km/h 9.7 km/h 70 % 0.0 mm 747 W/m2
11:10 18.1 °C 11.6 °C 1022.6 hPa NNE 1.6 km/h 11.3 km/h 66 % 0.0 mm 756 W/m2
11:15 18.3 °C 11.6 °C 1022.6 hPa WNW 3.2 km/h 11.3 km/h 65 % 0.0 mm 770 W/m2
11:20 18.3 °C 11.3 °C 1022.6 hPa West 3.2 km/h 11.3 km/h 64 % 0.0 mm 798 W/m2
11:30 18.1 °C 12.3 °C 1022.6 hPa North 8.0 km/h 12.9 km/h 69 % 0.0 mm 867 W/m2
11:35 18.6 °C 11.8 °C 1022.6 hPa NW 1.6 km/h 11.3 km/h 65 % 0.0 mm 879 W/m2
11:40 18.8 °C 11.3 °C 1022.6 hPa Calm   11.3 km/h 62 % 0.0 mm 907 W/m2
11:45 18.9 °C 13.1 °C 1022.6 hPa West 4.8 km/h 12.9 km/h 69 % 0.0 mm 904 W/m2
11:50 19.0 °C 12.0 °C 1022.6 hPa South 11.3 km/h 14.5 km/h 64 % 0.0 mm 983 W/m2
11:55 18.3 °C 11.4 °C 1022.6 hPa WSW 8.0 km/h 14.5 km/h 64 % 0.0 mm 234 W/m2
12:00 18.6 °C 12.1 °C 1022.6 hPa WSW 4.8 km/h 19.3 km/h 66 % 0.0 mm 464 W/m2
12:05 18.1 °C 11.9 °C 1022.9 hPa West 8.0 km/h 19.3 km/h 67 % 0.0 mm 381 W/m2
12:15 18.6 °C 12.3 °C 1022.6 hPa WNW 3.2 km/h 16.1 km/h 67 % 0.0 mm 302 W/m2
12:20 18.2 °C 11.2 °C 1022.6 hPa SW 6.4 km/h 16.1 km/h 64 % 0.0 mm 891 W/m2
12:25 18.6 °C 12.3 °C 1022.6 hPa WSW 6.4 km/h 14.5 km/h 67 % 0.0 mm 888 W/m2
12:30 18.4 °C 12.4 °C 1022.6 hPa SW 14.5 km/h 17.7 km/h 68 % 0.0 mm 886 W/m2
12:35 18.2 °C 11.7 °C 1022.6 hPa West 8.0 km/h 17.7 km/h 66 % 0.0 mm 895 W/m2
12:45 19.4 °C 12.0 °C 1022.6 hPa West 4.8 km/h 12.9 km/h 62 % 0.0 mm 904 W/m2
12:50 19.2 °C 13.1 °C 1022.6 hPa SW 3.2 km/h 12.9 km/h 68 % 0.0 mm 907 W/m2
12:55 19.4 °C 12.7 °C 1022.6 hPa West 12.9 km/h 16.1 km/h 65 % 0.0 mm 909 W/m2
13:00 19.2 °C 13.6 °C 1022.6 hPa West 12.9 km/h 16.1 km/h 70 % 0.0 mm 911 W/m2
13:05 19.2 °C 12.2 °C 1022.6 hPa West 8.0 km/h 16.1 km/h 64 % 0.0 mm 914 W/m2
13:10 19.8 °C 13.7 °C 1022.6 hPa WNW 6.4 km/h 14.5 km/h 68 % 0.0 mm 914 W/m2
13:15 19.2 °C 12.0 °C 1022.6 hPa West 8.0 km/h 14.5 km/h 63 % 0.0 mm 919 W/m2
13:20 19.4 °C 12.5 °C 1022.2 hPa West 4.8 km/h 14.5 km/h 64 % 0.0 mm 921 W/m2
13:25 19.7 °C 12.9 °C 1022.2 hPa WNW 12.9 km/h 17.7 km/h 65 % 0.0 mm 926 W/m2
13:30 19.2 °C 12.5 °C 1022.2 hPa West 6.4 km/h 17.7 km/h 65 % 0.0 mm 921 W/m2
13:35 19.2 °C 12.4 °C 1022.2 hPa West 8.0 km/h 17.7 km/h 65 % 0.0 mm 926 W/m2
13:40 19.0 °C 12.5 °C 1022.2 hPa West 8.0 km/h 16.1 km/h 66 % 0.0 mm 925 W/m2
13:45 19.4 °C 12.9 °C 1022.2 hPa SW 8.0 km/h 16.1 km/h 66 % 0.0 mm 925 W/m2
13:50 20.0 °C 13.7 °C 1022.2 hPa West 8.0 km/h 16.1 km/h 67 % 0.0 mm 926 W/m2
13:55 19.5 °C 12.5 °C 1022.2 hPa SW 3.2 km/h 19.3 km/h 64 % 0.0 mm 926 W/m2
14:00 19.3 °C 12.5 °C 1022.2 hPa WNW 8.0 km/h 19.3 km/h 65 % 0.0 mm 928 W/m2
14:05 19.8 °C 12.8 °C 1022.2 hPa SW 4.8 km/h 14.5 km/h 64 % 0.0 mm 925 W/m2
14:10 19.7 °C 12.7 °C 1021.9 hPa NW 4.8 km/h 14.5 km/h 64 % 0.0 mm 926 W/m2
14:15 19.7 °C 12.7 °C 1022.2 hPa Calm   16.1 km/h 64 % 0.0 mm 925 W/m2
14:20 19.8 °C 13.0 °C 1021.9 hPa West 8.0 km/h 17.7 km/h 65 % 0.0 mm 921 W/m2
14:30 19.3 °C 12.6 °C 1021.9 hPa WSW 9.7 km/h 16.1 km/h 65 % 0.0 mm 918 W/m2
14:35 19.8 °C 12.8 °C 1021.9 hPa WSW 11.3 km/h 17.7 km/h 64 % 0.0 mm 912 W/m2
14:40 20.2 °C 13.8 °C 1021.9 hPa West 14.5 km/h 17.7 km/h 67 % 0.0 mm 914 W/m2
14:45 19.6 °C 13.1 °C 1021.9 hPa NW 9.7 km/h 20.9 km/h 66 % 0.0 mm 905 W/m2
14:50 19.4 °C 13.4 °C 1021.9 hPa WSW 12.9 km/h 20.9 km/h 68 % 0.0 mm 905 W/m2
14:55 19.8 °C 13.5 °C 1021.9 hPa West 6.4 km/h 19.3 km/h 67 % 0.0 mm 902 W/m2
15:00 19.6 °C 12.8 °C 1021.9 hPa West 8.0 km/h 20.9 km/h 65 % 0.0 mm 893 W/m2
15:05 19.6 °C 13.3 °C 1021.6 hPa SW 9.7 km/h 24.1 km/h 67 % 0.0 mm 895 W/m2
15:10 20.3 °C 13.7 °C 1021.6 hPa West 9.7 km/h 24.1 km/h 66 % 0.0 mm 891 W/m2
15:15 19.9 °C 13.4 °C 1021.6 hPa WSW 4.8 km/h 20.9 km/h 66 % 0.0 mm 886 W/m2
15:20 19.7 °C 13.2 °C 1021.6 hPa WNW 19.3 km/h 27.4 km/h 66 % 0.0 mm 879 W/m2
15:25 19.2 °C 12.7 °C 1021.6 hPa WNW 12.9 km/h 27.4 km/h 66 % 0.0 mm 874 W/m2
15:35 20.1 °C 13.7 °C 1021.6 hPa NW 6.4 km/h 25.7 km/h 67 % 0.0 mm 865 W/m2
15:40 20.1 °C 13.3 °C 1021.2 hPa WNW 11.3 km/h 25.7 km/h 65 % 0.0 mm 860 W/m2
15:45 20.1 °C 13.6 °C 1021.2 hPa WNW 12.9 km/h 20.9 km/h 66 % 0.0 mm 851 W/m2
15:50 20.6 °C 15.3 °C 1021.2 hPa WNW 4.8 km/h 17.7 km/h 72 % 0.0 mm 844 W/m2
16:00 20.1 °C 13.8 °C 1021.2 hPa WSW 8.0 km/h 24.1 km/h 67 % 0.0 mm 826 W/m2
16:05 19.7 °C 13.2 °C 1021.2 hPa WNW 11.3 km/h 19.3 km/h 66 % 0.0 mm 819 W/m2
16:10 19.9 °C 13.9 °C 1021.2 hPa West 12.9 km/h 19.3 km/h 68 % 0.0 mm 809 W/m2
16:15 20.1 °C 14.5 °C 1021.2 hPa NW 9.7 km/h 19.3 km/h 70 % 0.0 mm 802 W/m2
16:20 20.4 °C 14.3 °C 1021.2 hPa WSW 3.2 km/h 19.3 km/h 68 % 0.0 mm 791 W/m2
16:25 19.9 °C 13.4 °C 1021.2 hPa WNW 9.7 km/h 19.3 km/h 66 % 0.0 mm 788 W/m2
16:30 19.9 °C 14.0 °C 1020.9 hPa West 8.0 km/h 22.5 km/h 69 % 0.0 mm 777 W/m2
16:35 20.3 °C 14.8 °C 1021.2 hPa NW 9.7 km/h 22.5 km/h 71 % 0.0 mm 766 W/m2
16:40 20.2 °C 13.8 °C 1020.9 hPa WNW 16.1 km/h 20.9 km/h 67 % 0.0 mm 758 W/m2
16:45 19.8 °C 13.5 °C 1021.2 hPa NNW 8.0 km/h 20.9 km/h 67 % 0.0 mm 745 W/m2
16:50 20.0 °C 13.7 °C 1020.9 hPa NW 8.0 km/h 22.5 km/h 67 % 0.0 mm 735 W/m2
16:55 19.9 °C 13.3 °C 1020.9 hPa WSW 4.8 km/h 24.1 km/h 66 % 0.0 mm 722 W/m2
17:00 19.9 °C 13.8 °C 1020.9 hPa West 16.1 km/h 24.1 km/h 68 % 0.0 mm 714 W/m2
17:05 20.0 °C 14.1 °C 1020.9 hPa WNW 9.7 km/h 22.5 km/h 69 % 0.0 mm 701 W/m2
17:10 20.0 °C 13.7 °C 1020.9 hPa WSW 12.9 km/h 24.1 km/h 67 % 0.0 mm 693 W/m2
17:15 19.8 °C 13.8 °C 1020.9 hPa WNW 12.9 km/h 24.1 km/h 68 % 0.0 mm 680 W/m2
17:20 19.9 °C 14.3 °C 1020.5 hPa WNW 14.5 km/h 24.1 km/h 70 % 0.0 mm 666 W/m2
17:30 20.0 °C 14.1 °C 1020.5 hPa WSW 9.7 km/h 22.5 km/h 69 % 0.0 mm 645 W/m2
17:35 20.1 °C 14.2 °C 1020.5 hPa West 14.5 km/h 20.9 km/h 69 % 0.0 mm 633 W/m2
17:40 19.9 °C 14.0 °C 1020.5 hPa WNW 11.3 km/h 25.7 km/h 69 % 0.0 mm 617 W/m2
17:45 19.8 °C 13.7 °C 1020.5 hPa West 8.0 km/h 25.7 km/h 68 % 0.0 mm 603 W/m2
17:50 20.2 °C 14.3 °C 1020.5 hPa WNW 4.8 km/h 22.5 km/h 69 % 0.0 mm 592 W/m2
17:55 20.1 °C 14.2 °C 1020.5 hPa WNW 8.0 km/h 19.3 km/h 69 % 0.0 mm 580 W/m2
18:00 20.4 °C 14.1 °C 1020.5 hPa West 20.9 km/h 22.5 km/h 67 % 0.0 mm 568 W/m2
18:05 20.1 °C 14.4 °C 1020.5 hPa West 12.9 km/h 22.5 km/h 70 % 0.0 mm 555 W/m2
18:15 19.5 °C 14.5 °C 1020.5 hPa WNW 4.8 km/h 22.5 km/h 73 % 0.0 mm 526 W/m2
18:20 19.5 °C 13.7 °C 1020.5 hPa WNW 6.4 km/h 24.1 km/h 69 % 0.0 mm 512 W/m2
18:25 19.3 °C 13.7 °C 1020.2 hPa West 16.1 km/h 25.7 km/h 70 % 0.0 mm 496 W/m2
18:30 19.2 °C 13.8 °C 1020.2 hPa WNW 8.0 km/h 25.7 km/h 71 % 0.0 mm 480 W/m2
18:35 19.6 °C 14.2 °C 1020.2 hPa West 14.5 km/h 22.5 km/h 71 % 0.0 mm 468 W/m2
18:40 19.7 °C 14.3 °C 1020.2 hPa West 4.8 km/h 20.9 km/h 71 % 0.0 mm 455 W/m2
18:45 19.7 °C 14.1 °C 1020.2 hPa West 6.4 km/h 22.5 km/h 70 % 0.0 mm 441 W/m2
18:50 19.4 °C 14.0 °C 1020.2 hPa WNW 12.9 km/h 22.5 km/h 71 % 0.0 mm 427 W/m2
19:00 20.0 °C 14.6 °C 1019.9 hPa WSW 11.3 km/h 17.7 km/h 71 % 0.0 mm 399 W/m2
19:05 20.1 °C 14.2 °C 1019.9 hPa WNW 9.7 km/h 17.7 km/h 69 % 0.0 mm 387 W/m2
19:10 19.8 °C 14.4 °C 1019.9 hPa West 6.4 km/h 16.1 km/h 71 % 0.0 mm 371 W/m2
19:15 20.1 °C 14.9 °C 1019.9 hPa West 3.2 km/h 16.1 km/h 72 % 0.0 mm 359 W/m2
19:20 20.2 °C 14.5 °C 1019.9 hPa NNW 9.7 km/h 14.5 km/h 70 % 0.0 mm 345 W/m2
19:25 20.2 °C 14.3 °C 1019.5 hPa NW 4.8 km/h 17.7 km/h 69 % 0.0 mm 330 W/m2
19:30 20.3 °C 14.6 °C 1019.5 hPa WNW 6.4 km/h 17.7 km/h 70 % 0.0 mm 313 W/m2
19:35 20.1 °C 14.2 °C 1019.5 hPa NW 4.8 km/h 17.7 km/h 69 % 0.0 mm 288 W/m2
19:45 19.8 °C 14.4 °C 1019.5 hPa NW 8.0 km/h 16.1 km/h 71 % 0.0 mm 236 W/m2
19:50 19.7 °C 14.3 °C 1019.5 hPa WNW 14.5 km/h 16.1 km/h 71 % 0.0 mm 216 W/m2
19:55 19.4 °C 14.3 °C 1019.5 hPa NW 12.9 km/h 17.7 km/h 72 % 0.0 mm 200 W/m2
20:00 19.5 °C 14.5 °C 1019.5 hPa NW 6.4 km/h 17.7 km/h 73 % 0.0 mm 188 W/m2
20:05 19.6 °C 14.2 °C 1019.5 hPa WNW 8.0 km/h 14.5 km/h 71 % 0.0 mm 181 W/m2
20:10 19.4 °C 14.0 °C 1019.5 hPa West 3.2 km/h 16.1 km/h 71 % 0.0 mm 176 W/m2
20:15 19.3 °C 14.2 °C 1019.5 hPa West 8.0 km/h 16.1 km/h 72 % 0.0 mm 156 W/m2
20:20 19.3 °C 14.1 °C 1019.5 hPa WNW 6.4 km/h 16.1 km/h 72 % 0.0 mm 135 W/m2
20:30 19.1 °C 14.1 °C 1019.2 hPa West 4.8 km/h 11.3 km/h 73 % 0.0 mm 111 W/m2
20:35 18.7 °C 14.0 °C 1019.2 hPa WNW 3.2 km/h 11.3 km/h 74 % 0.0 mm 65 W/m2
20:40 18.5 °C 14.0 °C 1019.2 hPa WNW 11.3 km/h 14.5 km/h 75 % 0.0 mm 37 W/m2
20:45 18.3 °C 13.6 °C 1019.2 hPa West 6.4 km/h 14.5 km/h 74 % 0.0 mm 35 W/m2
20:50 18.3 °C 13.8 °C 1019.2 hPa WNW 8.0 km/h 14.5 km/h 75 % 0.0 mm 32 W/m2
20:55 18.2 °C 13.9 °C 1019.2 hPa West 1.6 km/h 11.3 km/h 76 % 0.0 mm 30 W/m2
21:00 18.0 °C 13.9 °C 1019.2 hPa WNW 4.8 km/h 12.9 km/h 77 % 0.0 mm 28 W/m2
21:05 17.8 °C 13.9 °C 1019.2 hPa WNW 3.2 km/h 12.9 km/h 78 % 0.0 mm 26 W/m2
21:10 17.6 °C 13.9 °C 1019.2 hPa NW 4.8 km/h 9.7 km/h 79 % 0.0 mm 25 W/m2
21:15 17.4 °C 13.8 °C 1019.2 hPa WNW 6.4 km/h 9.7 km/h 79 % 0.0 mm 23 W/m2
21:20 17.3 °C 13.8 °C 1019.2 hPa NW 3.2 km/h 9.7 km/h 80 % 0.0 mm 19 W/m2
21:25 16.9 °C 13.7 °C 1019.2 hPa Calm   9.7 km/h 81 % 0.0 mm 18 W/m2
21:30 16.6 °C 13.7 °C 1019.2 hPa NNW 6.4 km/h 9.7 km/h 83 % 0.0 mm 16 W/m2
21:35 16.4 °C 13.7 °C 1019.2 hPa NW 1.6 km/h 8.0 km/h 84 % 0.0 mm 14 W/m2
21:40 16.2 °C 13.7 °C 1019.2 hPa NNW 3.2 km/h 8.0 km/h 85 % 0.0 mm 12 W/m2
21:45 16.1 °C 13.5 °C 1019.2 hPa Calm   9.7 km/h 85 % 0.0 mm 11 W/m2
21:50 15.8 °C 13.5 °C 1019.2 hPa NNW 1.6 km/h 9.7 km/h 86 % 0.0 mm 9 W/m2
22:00 15.6 °C 13.2 °C 1019.2 hPa Calm   6.4 km/h 86 % 0.0 mm 5 W/m2
22:05 15.3 °C 13.2 °C 1019.5 hPa WNW 1.6 km/h 9.7 km/h 87 % 0.0 mm 0 W/m2
22:10 15.3 °C 13.0 °C 1019.5 hPa NW 1.6 km/h 9.7 km/h 86 % 0.0 mm 0 W/m2
22:15 15.2 °C 13.0 °C 1019.5 hPa Calm   6.4 km/h 87 % 0.0 mm 0 W/m2
22:20 14.9 °C 12.8 °C 1019.5 hPa Calm   6.4 km/h 87 % 0.0 mm 0 W/m2
22:25 14.8 °C 12.8 °C 1019.5 hPa Calm   4.8 km/h 88 % 0.0 mm 0 W/m2
22:30 14.6 °C 12.8 °C 1019.5 hPa Calm   3.2 km/h 89 % 0.0 mm 0 W/m2
22:35 14.5 °C 12.7 °C 1019.5 hPa Calm   4.8 km/h 89 % 0.0 mm 0 W/m2
22:45 14.5 °C 12.9 °C 1019.5 hPa NNW 3.2 km/h 9.7 km/h 90 % 0.0 mm 0 W/m2
22:50 14.3 °C 12.9 °C 1019.9 hPa Calm   6.4 km/h 91 % 0.0 mm 0 W/m2
22:55 14.3 °C 12.9 °C 1019.9 hPa Calm   6.4 km/h 91 % 0.0 mm 0 W/m2
23:00 14.3 °C 12.8 °C 1019.9 hPa Calm   4.8 km/h 91 % 0.0 mm 0 W/m2
23:05 14.2 °C 12.9 °C 1019.9 hPa North 1.6 km/h 6.4 km/h 92 % 0.0 mm 0 W/m2
23:10 14.2 °C 12.9 °C 1019.9 hPa Calm   6.4 km/h 92 % 0.0 mm 0 W/m2
23:15 14.2 °C 12.9 °C 1019.9 hPa Calm   6.4 km/h 92 % 0.0 mm 0 W/m2
23:20 14.3 °C 13.0 °C 1019.9 hPa NE 4.8 km/h 9.7 km/h 92 % 0.0 mm 0 W/m2
23:30 14.9 °C 13.3 °C 1019.9 hPa NE 4.8 km/h 12.9 km/h 90 % 0.0 mm 0 W/m2
23:35 14.9 °C 13.0 °C 1019.9 hPa Calm   12.9 km/h 88 % 0.0 mm 0 W/m2
23:40 15.2 °C 12.8 °C 1019.9 hPa NE 6.4 km/h 12.9 km/h 86 % 0.0 mm 0 W/m2
23:45 15.1 °C 12.6 °C 1019.9 hPa North 3.2 km/h 11.3 km/h 85 % 0.0 mm 0 W/m2
23:50 15.1 °C 12.6 °C 1019.9 hPa NNE 8.0 km/h 16.1 km/h 85 % 0.0 mm 0 W/m2
23:55 15.2 °C 12.4 °C 1019.9 hPa NNE 8.0 km/h 17.7 km/h 83 % 0.0 mm 0 W/m2
Avec l'autorisation de Weather Underground - 1.5 mb